sensor_id;sensor_type;location;lat;lon;timestamp;P1;durP1;ratioP1;P2;durP2;ratioP2
43835;SDS011;39345;43.964;25.340;2022-09-30T00:01:54;10.70;;;6.03;;
43835;SDS011;39345;43.964;25.340;2022-09-30T00:04:22;13.80;;;6.50;;
43835;SDS011;39345;43.964;25.340;2022-09-30T00:06:51;13.95;;;8.95;;
43835;SDS011;39345;43.964;25.340;2022-09-30T00:09:18;15.82;;;8.52;;
43835;SDS011;39345;43.964;25.340;2022-09-30T00:11:47;13.57;;;6.65;;
43835;SDS011;39345;43.964;25.340;2022-09-30T00:14:16;12.40;;;7.10;;
43835;SDS011;39345;43.964;25.340;2022-09-30T00:16:44;14.55;;;7.60;;
43835;SDS011;39345;43.964;25.340;2022-09-30T00:19:11;16.27;;;8.63;;
43835;SDS011;39345;43.964;25.340;2022-09-30T00:21:39;14.13;;;8.02;;
43835;SDS011;39345;43.964;25.340;2022-09-30T00:24:07;16.48;;;9.07;;
43835;SDS011;39345;43.964;25.340;2022-09-30T00:26:34;10.00;;;6.65;;
43835;SDS011;39345;43.964;25.340;2022-09-30T00:29:02;17.85;;;9.32;;
43835;SDS011;39345;43.964;25.340;2022-09-30T00:31:32;15.30;;;8.27;;
43835;SDS011;39345;43.964;25.340;2022-09-30T00:34:00;15.77;;;9.05;;
43835;SDS011;39345;43.964;25.340;2022-09-30T00:36:37;14.05;;;6.95;;
43835;SDS011;39345;43.964;25.340;2022-09-30T00:39:05;13.55;;;9.02;;
43835;SDS011;39345;43.964;25.340;2022-09-30T00:41:33;17.48;;;9.10;;
43835;SDS011;39345;43.964;25.340;2022-09-30T00:44:01;14.55;;;8.98;;
43835;SDS011;39345;43.964;25.340;2022-09-30T00:46:34;16.42;;;7.18;;
43835;SDS011;39345;43.964;25.340;2022-09-30T00:49:13;10.15;;;6.88;;
43835;SDS011;39345;43.964;25.340;2022-09-30T00:51:53;15.63;;;6.95;;
43835;SDS011;39345;43.964;25.340;2022-09-30T00:54:22;11.93;;;6.78;;
43835;SDS011;39345;43.964;25.340;2022-09-30T00:56:52;12.48;;;6.47;;
43835;SDS011;39345;43.964;25.340;2022-09-30T00:59:24;14.73;;;7.18;;
43835;SDS011;39345;43.964;25.340;2022-09-30T01:01:53;15.35;;;9.45;;
43835;SDS011;39345;43.964;25.340;2022-09-30T01:04:21;39.90;;;24.70;;
43835;SDS011;39345;43.964;25.340;2022-09-30T01:06:49;20.58;;;11.68;;
43835;SDS011;39345;43.964;25.340;2022-09-30T01:09:17;38.15;;;22.60;;
43835;SDS011;39345;43.964;25.340;2022-09-30T01:11:45;33.63;;;18.15;;
43835;SDS011;39345;43.964;25.340;2022-09-30T01:14:17;11.52;;;6.85;;
43835;SDS011;39345;43.964;25.340;2022-09-30T01:34:50;17.00;;;8.68;;
43835;SDS011;39345;43.964;25.340;2022-09-30T01:37:22;16.52;;;9.60;;
43835;SDS011;39345;43.964;25.340;2022-09-30T01:53:05;16.20;;;8.38;;
43835;SDS011;39345;43.964;25.340;2022-09-30T01:58:29;14.88;;;7.63;;
43835;SDS011;39345;43.964;25.340;2022-09-30T02:00:59;21.58;;;12.13;;
43835;SDS011;39345;43.964;25.340;2022-09-30T02:03:38;18.58;;;11.13;;
43835;SDS011;39345;43.964;25.340;2022-09-30T02:06:06;28.67;;;17.60;;
43835;SDS011;39345;43.964;25.340;2022-09-30T02:08:37;22.55;;;11.85;;
43835;SDS011;39345;43.964;25.340;2022-09-30T02:11:11;17.55;;;10.25;;
43835;SDS011;39345;43.964;25.340;2022-09-30T02:13:44;14.63;;;8.23;;
43835;SDS011;39345;43.964;25.340;2022-09-30T02:16:16;20.67;;;9.25;;
43835;SDS011;39345;43.964;25.340;2022-09-30T02:18:52;20.88;;;12.15;;
43835;SDS011;39345;43.964;25.340;2022-09-30T02:21:22;18.50;;;11.63;;
43835;SDS011;39345;43.964;25.340;2022-09-30T02:23:52;16.70;;;9.02;;
43835;SDS011;39345;43.964;25.340;2022-09-30T02:26:27;19.48;;;11.45;;
43835;SDS011;39345;43.964;25.340;2022-09-30T02:29:00;20.42;;;11.48;;
43835;SDS011;39345;43.964;25.340;2022-09-30T02:31:30;17.23;;;11.07;;
43835;SDS011;39345;43.964;25.340;2022-09-30T02:33:59;17.83;;;9.07;;
43835;SDS011;39345;43.964;25.340;2022-09-30T02:36:29;19.08;;;9.93;;
43835;SDS011;39345;43.964;25.340;2022-09-30T02:39:13;14.55;;;8.75;;
43835;SDS011;39345;43.964;25.340;2022-09-30T02:41:43;14.27;;;8.35;;
43835;SDS011;39345;43.964;25.340;2022-09-30T02:44:12;14.10;;;8.48;;
43835;SDS011;39345;43.964;25.340;2022-09-30T02:46:42;14.98;;;8.95;;
43835;SDS011;39345;43.964;25.340;2022-09-30T02:49:21;19.08;;;11.38;;
43835;SDS011;39345;43.964;25.340;2022-09-30T02:52:12;18.30;;;9.93;;
43835;SDS011;39345;43.964;25.340;2022-09-30T02:54:49;16.60;;;8.90;;
43835;SDS011;39345;43.964;25.340;2022-09-30T02:57:37;16.17;;;10.15;;
43835;SDS011;39345;43.964;25.340;2022-09-30T03:00:07;22.05;;;10.05;;
43835;SDS011;39345;43.964;25.340;2022-09-30T03:02:39;17.98;;;9.13;;
43835;SDS011;39345;43.964;25.340;2022-09-30T03:05:07;17.30;;;9.35;;
43835;SDS011;39345;43.964;25.340;2022-09-30T03:07:35;15.38;;;8.77;;
43835;SDS011;39345;43.964;25.340;2022-09-30T03:10:20;15.20;;;8.05;;
43835;SDS011;39345;43.964;25.340;2022-09-30T03:23:43;14.60;;;8.10;;
43835;SDS011;39345;43.964;25.340;2022-09-30T03:26:22;17.63;;;9.25;;
43835;SDS011;39345;43.964;25.340;2022-09-30T03:29:03;15.30;;;8.77;;
43835;SDS011;39345;43.964;25.340;2022-09-30T03:31:56;14.85;;;8.63;;
43835;SDS011;39345;43.964;25.340;2022-09-30T03:34:21;14.75;;;8.10;;
43835;SDS011;39345;43.964;25.340;2022-09-30T03:37:27;15.95;;;8.50;;
43835;SDS011;39345;43.964;25.340;2022-09-30T03:42:42;13.57;;;8.50;;
43835;SDS011;39345;43.964;25.340;2022-09-30T03:47:46;14.85;;;8.45;;
43835;SDS011;39345;43.964;25.340;2022-09-30T03:50:17;16.40;;;8.70;;
43835;SDS011;39345;43.964;25.340;2022-09-30T03:52:46;14.18;;;8.73;;
43835;SDS011;39345;43.964;25.340;2022-09-30T03:55:13;15.27;;;8.05;;
43835;SDS011;39345;43.964;25.340;2022-09-30T03:57:42;15.02;;;8.57;;
43835;SDS011;39345;43.964;25.340;2022-09-30T04:00:10;15.25;;;8.52;;
43835;SDS011;39345;43.964;25.340;2022-09-30T04:02:38;17.73;;;9.30;;
43835;SDS011;39345;43.964;25.340;2022-09-30T04:05:05;16.20;;;8.95;;
43835;SDS011;39345;43.964;25.340;2022-09-30T04:07:33;13.32;;;8.20;;
43835;SDS011;39345;43.964;25.340;2022-09-30T04:10:01;13.40;;;8.38;;
43835;SDS011;39345;43.964;25.340;2022-09-30T04:12:28;15.10;;;8.63;;
43835;SDS011;39345;43.964;25.340;2022-09-30T04:14:56;11.90;;;8.32;;
43835;SDS011;39345;43.964;25.340;2022-09-30T04:17:23;11.88;;;8.73;;
43835;SDS011;39345;43.964;25.340;2022-09-30T04:19:51;12.18;;;8.38;;
43835;SDS011;39345;43.964;25.340;2022-09-30T04:22:18;13.90;;;9.10;;
43835;SDS011;39345;43.964;25.340;2022-09-30T04:24:51;13.88;;;8.85;;
43835;SDS011;39345;43.964;25.340;2022-09-30T04:27:18;17.20;;;8.93;;
43835;SDS011;39345;43.964;25.340;2022-09-30T04:29:46;14.30;;;8.98;;
43835;SDS011;39345;43.964;25.340;2022-09-30T04:32:13;15.85;;;8.73;;
43835;SDS011;39345;43.964;25.340;2022-09-30T04:34:41;13.60;;;8.88;;
43835;SDS011;39345;43.964;25.340;2022-09-30T04:37:08;12.27;;;8.43;;
43835;SDS011;39345;43.964;25.340;2022-09-30T04:39:36;14.60;;;8.88;;
43835;SDS011;39345;43.964;25.340;2022-09-30T04:42:04;15.18;;;9.02;;
43835;SDS011;39345;43.964;25.340;2022-09-30T04:44:31;14.20;;;9.23;;
43835;SDS011;39345;43.964;25.340;2022-09-30T04:47:00;14.60;;;9.50;;
43835;SDS011;39345;43.964;25.340;2022-09-30T04:49:28;13.90;;;9.45;;
43835;SDS011;39345;43.964;25.340;2022-09-30T04:51:55;19.75;;;9.20;;
43835;SDS011;39345;43.964;25.340;2022-09-30T04:54:22;13.43;;;9.15;;
43835;SDS011;39345;43.964;25.340;2022-09-30T04:56:50;13.15;;;9.07;;
43835;SDS011;39345;43.964;25.340;2022-09-30T04:59:17;14.10;;;9.75;;
43835;SDS011;39345;43.964;25.340;2022-09-30T05:01:45;17.17;;;11.82;;
43835;SDS011;39345;43.964;25.340;2022-09-30T05:04:12;19.73;;;11.15;;
43835;SDS011;39345;43.964;25.340;2022-09-30T05:06:41;17.63;;;11.23;;
43835;SDS011;39345;43.964;25.340;2022-09-30T05:09:08;25.98;;;17.63;;
43835;SDS011;39345;43.964;25.340;2022-09-30T05:11:36;31.70;;;22.48;;
43835;SDS011;39345;43.964;25.340;2022-09-30T05:14:06;30.58;;;22.02;;
43835;SDS011;39345;43.964;25.340;2022-09-30T05:16:34;68.85;;;53.17;;
43835;SDS011;39345;43.964;25.340;2022-09-30T05:19:02;35.28;;;29.02;;
43835;SDS011;39345;43.964;25.340;2022-09-30T05:21:30;23.73;;;15.18;;
43835;SDS011;39345;43.964;25.340;2022-09-30T05:23:57;48.78;;;35.95;;
43835;SDS011;39345;43.964;25.340;2022-09-30T05:26:25;25.38;;;13.00;;
43835;SDS011;39345;43.964;25.340;2022-09-30T05:28:52;98.75;;;53.92;;
43835;SDS011;39345;43.964;25.340;2022-09-30T05:31:20;18.60;;;10.70;;
43835;SDS011;39345;43.964;25.340;2022-09-30T05:33:47;22.25;;;12.05;;
43835;SDS011;39345;43.964;25.340;2022-09-30T05:36:19;19.08;;;11.00;;
43835;SDS011;39345;43.964;25.340;2022-09-30T05:38:50;26.95;;;16.73;;
43835;SDS011;39345;43.964;25.340;2022-09-30T05:41:18;49.40;;;33.35;;
43835;SDS011;39345;43.964;25.340;2022-09-30T05:43:46;34.97;;;21.02;;
43835;SDS011;39345;43.964;25.340;2022-09-30T05:46:14;15.85;;;8.88;;
43835;SDS011;39345;43.964;25.340;2022-09-30T05:48:42;10.10;;;6.25;;
43835;SDS011;39345;43.964;25.340;2022-09-30T05:51:10;14.07;;;9.02;;
43835;SDS011;39345;43.964;25.340;2022-09-30T05:53:38;19.45;;;10.82;;
43835;SDS011;39345;43.964;25.340;2022-09-30T05:56:06;20.67;;;12.80;;
43835;SDS011;39345;43.964;25.340;2022-09-30T05:58:34;16.08;;;11.35;;
43835;SDS011;39345;43.964;25.340;2022-09-30T06:01:07;19.40;;;13.88;;
43835;SDS011;39345;43.964;25.340;2022-09-30T06:03:39;13.63;;;7.72;;
43835;SDS011;39345;43.964;25.340;2022-09-30T06:06:07;15.70;;;10.55;;
43835;SDS011;39345;43.964;25.340;2022-09-30T06:08:34;15.68;;;9.40;;
43835;SDS011;39345;43.964;25.340;2022-09-30T06:11:06;17.13;;;10.98;;
43835;SDS011;39345;43.964;25.340;2022-09-30T06:13:37;18.73;;;10.98;;
43835;SDS011;39345;43.964;25.340;2022-09-30T06:16:05;15.02;;;9.77;;
43835;SDS011;39345;43.964;25.340;2022-09-30T06:18:33;18.10;;;11.55;;
43835;SDS011;39345;43.964;25.340;2022-09-30T06:21:02;13.30;;;8.52;;
43835;SDS011;39345;43.964;25.340;2022-09-30T06:23:30;16.23;;;10.98;;
43835;SDS011;39345;43.964;25.340;2022-09-30T06:26:00;17.75;;;9.57;;
43835;SDS011;39345;43.964;25.340;2022-09-30T06:28:28;15.70;;;10.32;;
43835;SDS011;39345;43.964;25.340;2022-09-30T06:30:56;11.43;;;8.32;;
43835;SDS011;39345;43.964;25.340;2022-09-30T06:33:23;15.70;;;9.45;;
43835;SDS011;39345;43.964;25.340;2022-09-30T06:35:51;19.75;;;8.48;;
43835;SDS011;39345;43.964;25.340;2022-09-30T06:38:18;15.50;;;8.07;;
43835;SDS011;39345;43.964;25.340;2022-09-30T06:40:48;11.48;;;8.30;;
43835;SDS011;39345;43.964;25.340;2022-09-30T06:43:19;40.35;;;20.13;;
43835;SDS011;39345;43.964;25.340;2022-09-30T06:45:47;20.80;;;12.35;;
43835;SDS011;39345;43.964;25.340;2022-09-30T06:48:20;17.23;;;8.70;;
43835;SDS011;39345;43.964;25.340;2022-09-30T06:51:02;14.85;;;7.22;;
43835;SDS011;39345;43.964;25.340;2022-09-30T06:53:30;13.85;;;7.22;;
43835;SDS011;39345;43.964;25.340;2022-09-30T06:55:57;14.57;;;5.97;;
43835;SDS011;39345;43.964;25.340;2022-09-30T06:58:24;12.00;;;4.90;;
43835;SDS011;39345;43.964;25.340;2022-09-30T07:01:04;11.85;;;6.80;;
43835;SDS011;39345;43.964;25.340;2022-09-30T07:03:33;15.88;;;6.53;;
43835;SDS011;39345;43.964;25.340;2022-09-30T07:06:02;13.57;;;6.90;;
43835;SDS011;39345;43.964;25.340;2022-09-30T07:08:30;9.35;;;4.47;;
43835;SDS011;39345;43.964;25.340;2022-09-30T07:10:58;13.32;;;7.05;;
43835;SDS011;39345;43.964;25.340;2022-09-30T07:13:26;6.93;;;3.80;;
43835;SDS011;39345;43.964;25.340;2022-09-30T07:15:53;7.88;;;4.57;;
43835;SDS011;39345;43.964;25.340;2022-09-30T07:18:23;10.15;;;4.45;;
43835;SDS011;39345;43.964;25.340;2022-09-30T07:20:52;7.07;;;5.00;;
43835;SDS011;39345;43.964;25.340;2022-09-30T07:23:21;13.68;;;5.28;;
43835;SDS011;39345;43.964;25.340;2022-09-30T07:25:53;9.70;;;4.47;;
43835;SDS011;39345;43.964;25.340;2022-09-30T07:28:22;9.40;;;4.38;;
43835;SDS011;39345;43.964;25.340;2022-09-30T07:30:53;9.48;;;4.72;;
43835;SDS011;39345;43.964;25.340;2022-09-30T07:33:44;9.65;;;4.93;;
43835;SDS011;39345;43.964;25.340;2022-09-30T07:36:12;14.95;;;5.05;;
43835;SDS011;39345;43.964;25.340;2022-09-30T07:38:44;13.77;;;6.45;;
43835;SDS011;39345;43.964;25.340;2022-09-30T07:41:20;30.83;;;22.55;;
43835;SDS011;39345;43.964;25.340;2022-09-30T07:43:49;21.90;;;16.48;;
43835;SDS011;39345;43.964;25.340;2022-09-30T07:46:18;21.42;;;15.32;;
43835;SDS011;39345;43.964;25.340;2022-09-30T07:48:46;14.23;;;9.57;;
43835;SDS011;39345;43.964;25.340;2022-09-30T07:51:28;11.18;;;6.80;;
43835;SDS011;39345;43.964;25.340;2022-09-30T07:53:58;22.77;;;16.25;;
43835;SDS011;39345;43.964;25.340;2022-09-30T07:56:26;45.45;;;36.38;;
43835;SDS011;39345;43.964;25.340;2022-09-30T07:59:14;37.65;;;26.15;;
43835;SDS011;39345;43.964;25.340;2022-09-30T08:01:42;12.20;;;5.90;;
43835;SDS011;39345;43.964;25.340;2022-09-30T08:04:10;12.68;;;8.40;;
43835;SDS011;39345;43.964;25.340;2022-09-30T08:06:39;27.17;;;20.85;;
43835;SDS011;39345;43.964;25.340;2022-09-30T08:09:07;13.05;;;8.45;;
43835;SDS011;39345;43.964;25.340;2022-09-30T08:11:35;21.83;;;14.77;;
43835;SDS011;39345;43.964;25.340;2022-09-30T08:14:03;12.77;;;6.63;;
43835;SDS011;39345;43.964;25.340;2022-09-30T08:16:31;11.88;;;8.20;;
43835;SDS011;39345;43.964;25.340;2022-09-30T08:18:59;20.27;;;13.32;;
43835;SDS011;39345;43.964;25.340;2022-09-30T08:21:27;9.82;;;5.60;;
43835;SDS011;39345;43.964;25.340;2022-09-30T08:23:55;8.85;;;4.65;;
43835;SDS011;39345;43.964;25.340;2022-09-30T08:26:23;8.30;;;3.50;;
43835;SDS011;39345;43.964;25.340;2022-09-30T08:28:50;12.30;;;7.53;;
43835;SDS011;39345;43.964;25.340;2022-09-30T08:31:20;8.43;;;5.80;;
43835;SDS011;39345;43.964;25.340;2022-09-30T08:33:47;9.77;;;4.40;;
43835;SDS011;39345;43.964;25.340;2022-09-30T08:36:22;7.20;;;3.92;;
43835;SDS011;39345;43.964;25.340;2022-09-30T08:38:49;8.10;;;4.40;;
43835;SDS011;39345;43.964;25.340;2022-09-30T08:41:39;13.00;;;7.13;;
43835;SDS011;39345;43.964;25.340;2022-09-30T08:51:51;7.65;;;3.92;;
43835;SDS011;39345;43.964;25.340;2022-09-30T08:54:20;10.57;;;4.60;;
43835;SDS011;39345;43.964;25.340;2022-09-30T08:56:49;7.63;;;3.13;;
43835;SDS011;39345;43.964;25.340;2022-09-30T09:01:54;6.00;;;3.30;;
43835;SDS011;39345;43.964;25.340;2022-09-30T09:04:25;7.32;;;3.90;;
43835;SDS011;39345;43.964;25.340;2022-09-30T09:07:04;7.00;;;3.53;;
43835;SDS011;39345;43.964;25.340;2022-09-30T09:09:36;5.70;;;3.40;;
43835;SDS011;39345;43.964;25.340;2022-09-30T09:12:20;8.20;;;3.95;;
43835;SDS011;39345;43.964;25.340;2022-09-30T09:20:24;3.97;;;3.00;;
43835;SDS011;39345;43.964;25.340;2022-09-30T09:22:55;5.82;;;3.00;;
43835;SDS011;39345;43.964;25.340;2022-09-30T09:25:24;12.00;;;3.95;;
43835;SDS011;39345;43.964;25.340;2022-09-30T09:27:56;7.43;;;2.50;;
43835;SDS011;39345;43.964;25.340;2022-09-30T09:30:27;5.13;;;3.08;;
43835;SDS011;39345;43.964;25.340;2022-09-30T09:32:56;6.03;;;2.70;;
43835;SDS011;39345;43.964;25.340;2022-09-30T09:35:43;5.00;;;2.53;;
43835;SDS011;39345;43.964;25.340;2022-09-30T09:38:15;5.93;;;2.70;;
43835;SDS011;39345;43.964;25.340;2022-09-30T09:48:47;5.28;;;3.20;;
43835;SDS011;39345;43.964;25.340;2022-09-30T09:51:27;6.75;;;3.00;;
43835;SDS011;39345;43.964;25.340;2022-09-30T09:53:58;9.35;;;4.03;;
43835;SDS011;39345;43.964;25.340;2022-09-30T09:56:29;18.80;;;12.40;;
43835;SDS011;39345;43.964;25.340;2022-09-30T10:01:32;28.02;;;22.27;;
43835;SDS011;39345;43.964;25.340;2022-09-30T10:09:20;5.25;;;2.88;;
43835;SDS011;39345;43.964;25.340;2022-09-30T10:11:49;4.57;;;2.97;;
43835;SDS011;39345;43.964;25.340;2022-09-30T10:14:16;5.65;;;3.15;;
43835;SDS011;39345;43.964;25.340;2022-09-30T10:16:46;4.38;;;2.63;;
43835;SDS011;39345;43.964;25.340;2022-09-30T10:19:17;5.28;;;2.50;;
43835;SDS011;39345;43.964;25.340;2022-09-30T10:21:46;8.82;;;3.55;;
43835;SDS011;39345;43.964;25.340;2022-09-30T10:24:27;3.63;;;3.03;;
43835;SDS011;39345;43.964;25.340;2022-09-30T10:26:55;4.05;;;3.28;;
43835;SDS011;39345;43.964;25.340;2022-09-30T10:29:32;6.93;;;3.78;;
43835;SDS011;39345;43.964;25.340;2022-09-30T10:32:05;7.55;;;3.38;;
43835;SDS011;39345;43.964;25.340;2022-09-30T10:37:06;4.82;;;2.70;;
43835;SDS011;39345;43.964;25.340;2022-09-30T10:39:37;7.00;;;4.10;;
43835;SDS011;39345;43.964;25.340;2022-09-30T10:42:06;6.35;;;2.90;;
43835;SDS011;39345;43.964;25.340;2022-09-30T10:44:44;8.95;;;3.70;;
43835;SDS011;39345;43.964;25.340;2022-09-30T10:47:16;6.15;;;3.22;;
43835;SDS011;39345;43.964;25.340;2022-09-30T10:49:48;4.68;;;3.22;;
43835;SDS011;39345;43.964;25.340;2022-09-30T10:52:18;6.90;;;2.85;;
43835;SDS011;39345;43.964;25.340;2022-09-30T10:54:59;3.38;;;2.70;;
43835;SDS011;39345;43.964;25.340;2022-09-30T11:00:01;6.72;;;2.58;;
43835;SDS011;39345;43.964;25.340;2022-09-30T11:02:37;4.50;;;2.50;;
43835;SDS011;39345;43.964;25.340;2022-09-30T11:07:41;5.35;;;2.50;;
43835;SDS011;39345;43.964;25.340;2022-09-30T11:12:49;3.77;;;2.57;;
43835;SDS011;39345;43.964;25.340;2022-09-30T11:15:23;10.45;;;2.70;;
43835;SDS011;39345;43.964;25.340;2022-09-30T11:20:22;5.50;;;3.10;;
43835;SDS011;39345;43.964;25.340;2022-09-30T11:25:53;6.13;;;4.57;;
43835;SDS011;39345;43.964;25.340;2022-09-30T11:40:55;6.82;;;4.18;;
43835;SDS011;39345;43.964;25.340;2022-09-30T11:58:30;7.70;;;5.10;;
43835;SDS011;39345;43.964;25.340;2022-09-30T12:01:13;4.00;;;2.85;;
43835;SDS011;39345;43.964;25.340;2022-09-30T12:03:42;3.20;;;2.30;;
43835;SDS011;39345;43.964;25.340;2022-09-30T12:06:13;7.65;;;3.50;;
43835;SDS011;39345;43.964;25.340;2022-09-30T12:08:52;5.90;;;3.53;;
43835;SDS011;39345;43.964;25.340;2022-09-30T12:11:43;4.68;;;2.85;;
43835;SDS011;39345;43.964;25.340;2022-09-30T12:14:19;4.38;;;3.17;;
43835;SDS011;39345;43.964;25.340;2022-09-30T12:16:48;6.22;;;2.33;;
43835;SDS011;39345;43.964;25.340;2022-09-30T12:19:23;4.53;;;2.47;;
43835;SDS011;39345;43.964;25.340;2022-09-30T12:21:56;4.45;;;1.70;;
43835;SDS011;39345;43.964;25.340;2022-09-30T12:26:53;3.20;;;2.40;;
43835;SDS011;39345;43.964;25.340;2022-09-30T12:29:26;3.78;;;2.83;;
43835;SDS011;39345;43.964;25.340;2022-09-30T12:39:57;2.75;;;1.77;;
43835;SDS011;39345;43.964;25.340;2022-09-30T12:45:17;6.93;;;1.90;;
43835;SDS011;39345;43.964;25.340;2022-09-30T12:47:48;5.32;;;1.98;;
43835;SDS011;39345;43.964;25.340;2022-09-30T12:50:17;5.82;;;2.22;;
43835;SDS011;39345;43.964;25.340;2022-09-30T12:52:46;4.40;;;2.20;;
43835;SDS011;39345;43.964;25.340;2022-09-30T12:57:45;4.07;;;2.10;;
43835;SDS011;39345;43.964;25.340;2022-09-30T13:00:15;2.90;;;2.00;;
43835;SDS011;39345;43.964;25.340;2022-09-30T13:02:44;5.38;;;2.20;;
43835;SDS011;39345;43.964;25.340;2022-09-30T13:05:30;4.32;;;1.95;;
43835;SDS011;39345;43.964;25.340;2022-09-30T13:15:43;4.37;;;2.17;;
43835;SDS011;39345;43.964;25.340;2022-09-30T13:20:53;2.75;;;1.90;;
43835;SDS011;39345;43.964;25.340;2022-09-30T13:23:37;3.78;;;1.90;;
43835;SDS011;39345;43.964;25.340;2022-09-30T13:27:05;3.47;;;2.20;;
43835;SDS011;39345;43.964;25.340;2022-09-30T13:28:54;3.65;;;1.80;;
43835;SDS011;39345;43.964;25.340;2022-09-30T13:34:47;5.15;;;2.55;;
43835;SDS011;39345;43.964;25.340;2022-09-30T13:37:22;3.65;;;2.00;;
43835;SDS011;39345;43.964;25.340;2022-09-30T13:39:53;5.88;;;2.45;;
43835;SDS011;39345;43.964;25.340;2022-09-30T13:42:23;4.53;;;2.75;;
43835;SDS011;39345;43.964;25.340;2022-09-30T13:47:33;3.45;;;1.92;;
43835;SDS011;39345;43.964;25.340;2022-09-30T13:50:03;15.82;;;13.82;;
43835;SDS011;39345;43.964;25.340;2022-09-30T13:52:33;5.72;;;3.03;;
43835;SDS011;39345;43.964;25.340;2022-09-30T13:55:07;2.42;;;1.83;;
43835;SDS011;39345;43.964;25.340;2022-09-30T13:57:43;4.70;;;1.90;;
43835;SDS011;39345;43.964;25.340;2022-09-30T14:00:17;5.15;;;2.13;;
43835;SDS011;39345;43.964;25.340;2022-09-30T14:19:05;3.90;;;2.40;;
43835;SDS011;39345;43.964;25.340;2022-09-30T14:21:38;4.10;;;2.78;;
43835;SDS011;39345;43.964;25.340;2022-09-30T14:24:12;5.22;;;2.78;;
43835;SDS011;39345;43.964;25.340;2022-09-30T14:31:51;4.57;;;2.65;;
43835;SDS011;39345;43.964;25.340;2022-09-30T14:34:21;7.63;;;2.88;;
43835;SDS011;39345;43.964;25.340;2022-09-30T14:36:51;5.65;;;2.95;;
43835;SDS011;39345;43.964;25.340;2022-09-30T14:39:20;4.20;;;2.20;;
43835;SDS011;39345;43.964;25.340;2022-09-30T14:41:51;2.75;;;1.80;;
43835;SDS011;39345;43.964;25.340;2022-09-30T14:44:20;3.85;;;1.90;;
43835;SDS011;39345;43.964;25.340;2022-09-30T14:46:48;5.43;;;1.92;;
43835;SDS011;39345;43.964;25.340;2022-09-30T14:49:19;4.50;;;1.85;;
43835;SDS011;39345;43.964;25.340;2022-09-30T14:51:55;2.92;;;1.67;;
43835;SDS011;39345;43.964;25.340;2022-09-30T14:54:24;5.45;;;2.38;;
43835;SDS011;39345;43.964;25.340;2022-09-30T14:56:55;7.65;;;2.60;;
43835;SDS011;39345;43.964;25.340;2022-09-30T14:59:24;3.40;;;1.90;;
43835;SDS011;39345;43.964;25.340;2022-09-30T15:02:03;3.92;;;1.77;;
43835;SDS011;39345;43.964;25.340;2022-09-30T15:04:37;6.72;;;2.35;;
43835;SDS011;39345;43.964;25.340;2022-09-30T15:07:09;6.15;;;2.53;;
43835;SDS011;39345;43.964;25.340;2022-09-30T15:09:38;3.45;;;1.80;;
43835;SDS011;39345;43.964;25.340;2022-09-30T15:12:16;4.78;;;2.00;;
43835;SDS011;39345;43.964;25.340;2022-09-30T15:14:48;3.63;;;2.00;;
43835;SDS011;39345;43.964;25.340;2022-09-30T15:17:21;5.40;;;1.80;;
43835;SDS011;39345;43.964;25.340;2022-09-30T15:19:50;5.83;;;2.27;;
43835;SDS011;39345;43.964;25.340;2022-09-30T15:22:18;6.85;;;2.65;;
43835;SDS011;39345;43.964;25.340;2022-09-30T15:24:47;4.30;;;2.45;;
43835;SDS011;39345;43.964;25.340;2022-09-30T15:27:19;6.05;;;2.70;;
43835;SDS011;39345;43.964;25.340;2022-09-30T15:32:22;4.67;;;2.47;;
43835;SDS011;39345;43.964;25.340;2022-09-30T15:34:50;6.43;;;3.15;;
43835;SDS011;39345;43.964;25.340;2022-09-30T15:37:22;8.02;;;3.30;;
43835;SDS011;39345;43.964;25.340;2022-09-30T15:39:50;6.38;;;3.15;;
43835;SDS011;39345;43.964;25.340;2022-09-30T15:42:37;5.88;;;3.03;;
43835;SDS011;39345;43.964;25.340;2022-09-30T15:47:52;6.20;;;3.20;;
43835;SDS011;39345;43.964;25.340;2022-09-30T15:53:16;11.48;;;4.13;;
43835;SDS011;39345;43.964;25.340;2022-09-30T15:55:54;6.83;;;4.13;;
43835;SDS011;39345;43.964;25.340;2022-09-30T16:00:52;12.60;;;5.15;;
43835;SDS011;39345;43.964;25.340;2022-09-30T16:03:23;12.93;;;4.40;;
43835;SDS011;39345;43.964;25.340;2022-09-30T16:05:52;11.90;;;4.90;;
43835;SDS011;39345;43.964;25.340;2022-09-30T16:08:21;10.32;;;5.50;;
43835;SDS011;39345;43.964;25.340;2022-09-30T16:10:50;16.40;;;9.80;;
43835;SDS011;39345;43.964;25.340;2022-09-30T16:13:22;15.95;;;9.52;;
43835;SDS011;39345;43.964;25.340;2022-09-30T16:15:51;17.20;;;8.77;;
43835;SDS011;39345;43.964;25.340;2022-09-30T16:18:21;14.73;;;8.48;;
43835;SDS011;39345;43.964;25.340;2022-09-30T16:20:57;16.15;;;8.63;;
43835;SDS011;39345;43.964;25.340;2022-09-30T16:23:33;20.83;;;8.75;;
43835;SDS011;39345;43.964;25.340;2022-09-30T16:26:11;22.30;;;10.82;;
43835;SDS011;39345;43.964;25.340;2022-09-30T16:28:39;21.63;;;10.63;;
43835;SDS011;39345;43.964;25.340;2022-09-30T16:31:08;19.00;;;13.65;;
43835;SDS011;39345;43.964;25.340;2022-09-30T16:33:38;23.10;;;13.30;;
43835;SDS011;39345;43.964;25.340;2022-09-30T16:36:07;30.55;;;16.00;;
43835;SDS011;39345;43.964;25.340;2022-09-30T16:38:35;20.15;;;13.50;;
43835;SDS011;39345;43.964;25.340;2022-09-30T16:41:03;23.50;;;15.23;;
43835;SDS011;39345;43.964;25.340;2022-09-30T16:43:30;23.98;;;13.10;;
43835;SDS011;39345;43.964;25.340;2022-09-30T16:45:58;23.60;;;8.93;;
43835;SDS011;39345;43.964;25.340;2022-09-30T16:48:26;22.95;;;13.38;;
43835;SDS011;39345;43.964;25.340;2022-09-30T16:51:15;37.67;;;23.05;;
43835;SDS011;39345;43.964;25.340;2022-09-30T16:53:42;35.80;;;21.73;;
43835;SDS011;39345;43.964;25.340;2022-09-30T16:56:13;19.73;;;11.77;;
43835;SDS011;39345;43.964;25.340;2022-09-30T16:58:41;18.88;;;11.70;;
43835;SDS011;39345;43.964;25.340;2022-09-30T17:01:19;25.65;;;15.20;;
43835;SDS011;39345;43.964;25.340;2022-09-30T17:03:47;22.70;;;14.50;;
43835;SDS011;39345;43.964;25.340;2022-09-30T17:06:15;22.65;;;12.23;;
43835;SDS011;39345;43.964;25.340;2022-09-30T17:08:44;22.20;;;13.75;;
43835;SDS011;39345;43.964;25.340;2022-09-30T17:11:11;21.48;;;13.45;;
43835;SDS011;39345;43.964;25.340;2022-09-30T17:13:39;20.98;;;13.40;;
43835;SDS011;39345;43.964;25.340;2022-09-30T17:16:06;41.53;;;27.13;;
43835;SDS011;39345;43.964;25.340;2022-09-30T17:18:34;47.17;;;29.77;;
43835;SDS011;39345;43.964;25.340;2022-09-30T17:21:01;22.60;;;12.32;;
43835;SDS011;39345;43.964;25.340;2022-09-30T17:23:29;25.48;;;14.60;;
43835;SDS011;39345;43.964;25.340;2022-09-30T17:25:56;23.38;;;14.20;;
43835;SDS011;39345;43.964;25.340;2022-09-30T17:28:24;51.80;;;37.15;;
43835;SDS011;39345;43.964;25.340;2022-09-30T17:30:51;536.00;;;420.67;;
43835;SDS011;39345;43.964;25.340;2022-09-30T17:33:19;433.83;;;324.63;;
43835;SDS011;39345;43.964;25.340;2022-09-30T17:35:56;300.00;;;213.15;;
43835;SDS011;39345;43.964;25.340;2022-09-30T17:38:25;305.05;;;219.18;;
43835;SDS011;39345;43.964;25.340;2022-09-30T17:40:52;309.98;;;225.27;;
43835;SDS011;39345;43.964;25.340;2022-09-30T17:43:39;322.42;;;229.43;;
43835;SDS011;39345;43.964;25.340;2022-09-30T17:46:06;346.58;;;243.38;;
43835;SDS011;39345;43.964;25.340;2022-09-30T17:48:34;455.90;;;333.17;;
43835;SDS011;39345;43.964;25.340;2022-09-30T17:51:11;458.52;;;332.63;;
43835;SDS011;39345;43.964;25.340;2022-09-30T17:53:40;505.77;;;374.50;;